Ely, United Kingdom
Current Conditions -  °F | °C
As of 8:58 AM on Thursday 23 Oct 2014 (Local Time) from EGUN Reporting Station
Overcast Overcast  
Wind Chill: 53°   Ceiling: 3600
Heat Index: 53°   Visibility: 6mi
Dew Point: 53°   Wind: 12mph
Humidity: 100%   Direction: 210°SSW
Pressure: 30.1"   Gusts: NA
Location:  52.4°N, 0.26°E
Report Text: EGUN 230758Z AUTO 21010KT 9999 OVC036 12/12 A3010 RMK AO2 SLP196 T01180118 $
Loading
Personal Weather Stations






























Interactive Weather Map
Tropical Storm Tracking
New forecast layout! Learn more

10-Day Weather Forecast

Advertisements
Track Severe Weather on mobile